Ramona, Kansas
Current Conditions -  °F | °C
As of 3:53 AM on Monday 22 Dec 2014 (Local Time) from KSLN Reporting Station
Haze Haze  
Wind Chill: 41°   Ceiling: 500
Heat Index: 45°   Visibility: 4mi
Dew Point: 43°   Wind: 8mph
Humidity: 93%   Direction: 170°S
Pressure: 29.56"   Gusts: NA
Location:  38.6°N, 97.06°W
Report Text: KSLN 220953Z AUTO 17007KT 4SM BR OVC005 07/06 A2956 RMK AO2 SLP012 T00720061
Loading
Personal Weather Stations






























Interactive Weather Map New forecast layout! Learn more

10-Day Weather Forecast

Advertisements
Track Severe Weather on mobile